RYR6NW EGPF-EPMO
Flight info
| Callsign | RYR6NW |
|---|---|
| Flight time | 2h 7m |
| Altitude | 39000 |
| Route | NORBO Y96 TLA DCT SAB DCT PETIL L983 DETUS DCT TELMO Z491 KEKOV N195 SORIX |
| Aircraft | B738/M-SDE2E3FGHIRWXY/LB1 |
Departure
| Time | 2026-04-12 09:52 |
|---|---|
| Airport | Glasgow Airport (EGPF) |
Arrival
| Time | 2026-04-12 11:59 |
|---|---|
| Airport | Warsaw Modlin Airport (EPMO) |
| Time | Latitude | Longitude | Altitude | Speed | Heading |
|---|---|---|---|---|---|
| 2026-04-12 09:03 | 55.86515 | -4.43822 | 28 ft | 0 kts | 61° |
| 2026-04-12 09:45 | 55.86515 | -4.43823 | 28 ft | 0 kts | 61° |
| 2026-04-12 09:45 | 55.86508 | -4.43844 | 28 ft | 3 kts | 62° |
| 2026-04-12 09:45 | 55.86499 | -4.43875 | 28 ft | 3 kts | 62° |
| 2026-04-12 09:45 | 55.86490 | -4.43906 | 28 ft | 2 kts | 62° |
| 2026-04-12 09:46 | 55.86482 | -4.43931 | 28 ft | 3 kts | 44° |
| 2026-04-12 09:46 | 55.86468 | -4.43947 | 28 ft | 3 kts | 355° |
| 2026-04-12 09:46 | 55.86450 | -4.43938 | 28 ft | 2 kts | 332° |
| 2026-04-12 09:46 | 55.86442 | -4.43930 | 28 ft | 1 kts | 332° |
| 2026-04-12 09:48 | 55.86465 | -4.43952 | 28 ft | 16 kts | 332° |
| 2026-04-12 09:48 | 55.86588 | -4.44020 | 28 ft | 22 kts | 26° |
| 2026-04-12 09:49 | 55.86706 | -4.43807 | 28 ft | 27 kts | 46° |
| 2026-04-12 09:49 | 55.86775 | -4.43477 | 28 ft | 29 kts | 74° |
| 2026-04-12 09:49 | 55.86829 | -4.43147 | 28 ft | 27 kts | 73° |
| 2026-04-12 09:49 | 55.86933 | -4.42906 | 28 ft | 25 kts | 26° |
| 2026-04-12 09:50 | 55.87089 | -4.42793 | 28 ft | 25 kts | 19° |
| 2026-04-12 09:50 | 55.87284 | -4.42660 | 28 ft | 30 kts | 19° |
| 2026-04-12 09:50 | 55.87453 | -4.42471 | 28 ft | 29 kts | 46° |
| 2026-04-12 09:50 | 55.87588 | -4.42219 | 28 ft | 27 kts | 46° |
| 2026-04-12 09:51 | 55.87745 | -4.42226 | 28 ft | 24 kts | 301° |
| 2026-04-12 09:51 | 55.87697 | -4.42393 | 28 ft | 30 kts | 225° |
| 2026-04-12 09:51 | 55.87374 | -4.42997 | 28 ft | 102 kts | 226° |
| 2026-04-12 09:51 | 55.86770 | -4.44158 | 242 ft | 142 kts | 228° |
| 2026-04-12 09:52 | 55.86109 | -4.45475 | 1164 ft | 142 kts | 223° |
| 2026-04-12 09:52 | 55.85393 | -4.46672 | 2068 ft | 147 kts | 223° |
| 2026-04-12 09:52 | 55.84582 | -4.48086 | 2411 ft | 179 kts | 225° |
| 2026-04-12 09:52 | 55.83639 | -4.49754 | 2847 ft | 198 kts | 226° |
| 2026-04-12 09:53 | 55.82639 | -4.51526 | 3423 ft | 214 kts | 226° |
| 2026-04-12 09:53 | 55.81545 | -4.53466 | 4104 ft | 226 kts | 226° |
| 2026-04-12 09:53 | 55.80420 | -4.55458 | 5028 ft | 230 kts | 226° |
| 2026-04-12 09:53 | 55.79278 | -4.57481 | 5960 ft | 234 kts | 226° |
| 2026-04-12 09:54 | 55.78113 | -4.59544 | 6844 ft | 237 kts | 227° |
| 2026-04-12 09:54 | 55.76939 | -4.61625 | 7746 ft | 240 kts | 227° |
| 2026-04-12 09:54 | 55.76152 | -4.63016 | 8322 ft | 243 kts | 226° |
| 2026-04-12 09:54 | 55.74439 | -4.65657 | 9451 ft | 253 kts | 210° |
| 2026-04-12 09:55 | 55.72682 | -4.66483 | 9997 ft | 277 kts | 189° |
| 2026-04-12 09:55 | 55.70650 | -4.66113 | 10209 ft | 314 kts | 169° |
| 2026-04-12 09:55 | 55.68593 | -4.64289 | 10429 ft | 350 kts | 148° |
| 2026-04-12 09:55 | 55.66887 | -4.61033 | 10986 ft | 371 kts | 129° |
| 2026-04-12 09:56 | 55.65749 | -4.56850 | 11748 ft | 384 kts | 112° |
| 2026-04-12 09:56 | 55.65061 | -4.52250 | 12568 ft | 389 kts | 107° |
| 2026-04-12 09:56 | 55.64648 | -4.49076 | 13080 ft | 393 kts | 106° |
| 2026-04-12 09:56 | 55.63862 | -4.42747 | 13989 ft | 399 kts | 106° |
| 2026-04-12 09:57 | 55.63472 | -4.39560 | 14469 ft | 401 kts | 106° |
| 2026-04-12 09:57 | 55.62877 | -4.34714 | 15188 ft | 405 kts | 106° |
| 2026-04-12 09:57 | 55.62270 | -4.29826 | 15887 ft | 408 kts | 106° |
| 2026-04-12 09:57 | 55.61653 | -4.24910 | 16581 ft | 412 kts | 107° |
| 2026-04-12 09:58 | 55.61023 | -4.19949 | 17267 ft | 415 kts | 107° |
| 2026-04-12 09:58 | 55.60173 | -4.13296 | 18092 ft | 421 kts | 107° |
| 2026-04-12 09:58 | 55.59734 | -4.09878 | 18500 ft | 423 kts | 107° |
| 2026-04-12 09:58 | 55.59078 | -4.04787 | 19108 ft | 425 kts | 107° |
| 2026-04-12 09:59 | 55.58418 | -3.99677 | 19700 ft | 428 kts | 107° |
| 2026-04-12 09:59 | 55.57758 | -3.94596 | 20271 ft | 431 kts | 107° |
| 2026-04-12 09:59 | 55.57084 | -3.89415 | 20828 ft | 434 kts | 107° |
| 2026-04-12 09:59 | 55.56400 | -3.84187 | 21361 ft | 437 kts | 107° |
| 2026-04-12 10:00 | 55.55710 | -3.78923 | 21900 ft | 441 kts | 107° |
| 2026-04-12 10:00 | 55.55014 | -3.73633 | 22429 ft | 443 kts | 107° |
| 2026-04-12 10:00 | 55.54313 | -3.68321 | 22935 ft | 446 kts | 107° |
| 2026-04-12 10:00 | 55.53610 | -3.63014 | 23404 ft | 449 kts | 107° |
| 2026-04-12 10:01 | 55.52895 | -3.57630 | 23850 ft | 451 kts | 107° |
| 2026-04-12 10:01 | 55.52178 | -3.52239 | 24295 ft | 453 kts | 107° |
| 2026-04-12 10:01 | 55.51451 | -3.46811 | 24724 ft | 454 kts | 107° |
| 2026-04-12 10:01 | 55.50787 | -3.41335 | 25125 ft | 460 kts | 100° |
| 2026-04-12 10:02 | 55.50827 | -3.35632 | 25516 ft | 469 kts | 83° |
| 2026-04-12 10:02 | 55.51730 | -3.30077 | 25948 ft | 474 kts | 67° |
| 2026-04-12 10:02 | 55.53365 | -3.25088 | 26322 ft | 478 kts | 58° |
| 2026-04-12 10:02 | 55.55208 | -3.20162 | 26631 ft | 482 kts | 57° |
| 2026-04-12 10:03 | 55.57073 | -3.15224 | 26952 ft | 484 kts | 57° |
| 2026-04-12 10:03 | 55.58940 | -3.10233 | 27341 ft | 486 kts | 58° |
| 2026-04-12 10:03 | 55.60771 | -3.05264 | 27658 ft | 488 kts | 58° |
| 2026-04-12 10:03 | 55.62610 | -3.00206 | 28111 ft | 488 kts | 59° |
| 2026-04-12 10:04 | 55.64435 | -2.95138 | 28613 ft | 487 kts | 59° |
| 2026-04-12 10:04 | 55.66253 | -2.90061 | 29081 ft | 486 kts | 59° |
| 2026-04-12 10:04 | 55.68062 | -2.84995 | 29591 ft | 484 kts | 60° |
| 2026-04-12 10:04 | 55.69856 | -2.79960 | 29977 ft | 483 kts | 60° |
| 2026-04-12 10:05 | 55.71656 | -2.74906 | 30239 ft | 485 kts | 59° |
| 2026-04-12 10:05 | 55.73439 | -2.69888 | 30489 ft | 488 kts | 60° |
| 2026-04-12 10:05 | 55.75246 | -2.64789 | 30737 ft | 490 kts | 60° |
| 2026-04-12 10:05 | 55.77063 | -2.59656 | 31040 ft | 490 kts | 60° |
| 2026-04-12 10:06 | 55.78877 | -2.54519 | 31338 ft | 491 kts | 60° |
| 2026-04-12 10:06 | 55.80700 | -2.49348 | 31598 ft | 493 kts | 60° |
| 2026-04-12 10:06 | 55.82524 | -2.44163 | 31854 ft | 495 kts | 60° |
| 2026-04-12 10:06 | 55.84351 | -2.38961 | 32149 ft | 496 kts | 60° |
| 2026-04-12 10:07 | 55.86181 | -2.33739 | 32437 ft | 496 kts | 60° |
| 2026-04-12 10:07 | 55.87982 | -2.28574 | 32697 ft | 497 kts | 62° |
| 2026-04-12 10:07 | 55.89520 | -2.23067 | 32967 ft | 495 kts | 72° |
| 2026-04-12 10:07 | 55.90580 | -2.17247 | 33276 ft | 491 kts | 80° |
| 2026-04-12 10:08 | 55.91178 | -2.11283 | 33558 ft | 485 kts | 90° |
| 2026-04-12 10:08 | 55.91392 | -2.05294 | 33818 ft | 483 kts | 91° |
| 2026-04-12 10:08 | 55.91552 | -1.99301 | 34101 ft | 482 kts | 92° |
| 2026-04-12 10:08 | 55.91695 | -1.93416 | 34383 ft | 481 kts | 92° |
| 2026-04-12 10:09 | 55.91844 | -1.87461 | 34643 ft | 480 kts | 92° |
| 2026-04-12 10:09 | 55.92002 | -1.81512 | 34904 ft | 479 kts | 92° |
| 2026-04-12 10:09 | 55.92168 | -1.75546 | 35155 ft | 479 kts | 92° |
| 2026-04-12 10:09 | 55.92338 | -1.69630 | 35395 ft | 478 kts | 91° |
| 2026-04-12 10:10 | 55.92510 | -1.63698 | 35622 ft | 478 kts | 92° |
| 2026-04-12 10:10 | 55.92680 | -1.57845 | 35859 ft | 478 kts | 92° |
| 2026-04-12 10:10 | 55.92848 | -1.51936 | 36101 ft | 477 kts | 92° |
| 2026-04-12 10:10 | 55.93014 | -1.46013 | 36316 ft | 477 kts | 92° |
| 2026-04-12 10:11 | 55.93177 | -1.40104 | 36532 ft | 476 kts | 92° |
| 2026-04-12 10:11 | 55.93336 | -1.34199 | 36761 ft | 476 kts | 92° |
| 2026-04-12 10:11 | 55.93491 | -1.28303 | 36979 ft | 475 kts | 92° |
| 2026-04-12 10:11 | 55.93644 | -1.22417 | 37173 ft | 475 kts | 92° |
| 2026-04-12 10:12 | 55.93793 | -1.16525 | 37372 ft | 475 kts | 92° |
| 2026-04-12 10:12 | 55.93940 | -1.10626 | 37583 ft | 474 kts | 92° |
| 2026-04-12 10:12 | 55.94082 | -1.04821 | 37788 ft | 474 kts | 92° |
| 2026-04-12 10:12 | 55.94223 | -0.98948 | 37996 ft | 473 kts | 92° |
| 2026-04-12 10:13 | 55.94360 | -0.93084 | 38172 ft | 473 kts | 92° |
| 2026-04-12 10:13 | 55.94495 | -0.87217 | 38318 ft | 473 kts | 92° |
| 2026-04-12 10:13 | 55.94627 | -0.81350 | 38443 ft | 473 kts | 92° |
| 2026-04-12 10:13 | 55.94756 | -0.75485 | 38575 ft | 472 kts | 92° |
| 2026-04-12 10:14 | 55.94882 | -0.69621 | 38614 ft | 473 kts | 93° |
| 2026-04-12 10:14 | 55.95125 | -0.57903 | 38633 ft | 475 kts | 93° |
| 2026-04-12 10:15 | 55.95360 | -0.46110 | 38634 ft | 475 kts | 93° |
| 2026-04-12 10:15 | 55.95584 | -0.34325 | 38642 ft | 475 kts | 93° |
| 2026-04-12 10:16 | 55.95797 | -0.22539 | 38644 ft | 475 kts | 93° |
| 2026-04-12 10:16 | 55.95997 | -0.10749 | 38652 ft | 474 kts | 94° |
| 2026-04-12 10:17 | 55.96186 | 0.00959 | 38652 ft | 473 kts | 94° |
| 2026-04-12 10:17 | 55.96364 | 0.12703 | 38661 ft | 473 kts | 94° |
| 2026-04-12 10:18 | 55.96530 | 0.24431 | 38664 ft | 472 kts | 94° |
| 2026-04-12 10:18 | 55.96685 | 0.36130 | 38675 ft | 471 kts | 94° |
| 2026-04-12 10:19 | 55.96827 | 0.47742 | 38674 ft | 470 kts | 95° |
| 2026-04-12 10:19 | 55.96959 | 0.59426 | 38684 ft | 469 kts | 95° |
| 2026-04-12 10:20 | 55.97080 | 0.71083 | 38684 ft | 469 kts | 95° |
| 2026-04-12 10:20 | 55.97190 | 0.82666 | 38698 ft | 469 kts | 95° |
| 2026-04-12 10:21 | 55.97288 | 0.94302 | 38698 ft | 469 kts | 95° |
| 2026-04-12 10:21 | 55.97376 | 1.05958 | 38708 ft | 469 kts | 95° |
| 2026-04-12 10:22 | 55.97454 | 1.17622 | 38712 ft | 469 kts | 96° |
| 2026-04-12 10:22 | 55.97520 | 1.29280 | 38719 ft | 469 kts | 96° |
| 2026-04-12 10:23 | 55.97574 | 1.40885 | 38720 ft | 470 kts | 96° |
| 2026-04-12 10:23 | 55.97619 | 1.52591 | 38727 ft | 470 kts | 96° |
| 2026-04-12 10:24 | 55.97652 | 1.64211 | 38727 ft | 471 kts | 96° |
| 2026-04-12 10:24 | 55.97674 | 1.75933 | 38739 ft | 471 kts | 96° |
| 2026-04-12 10:25 | 55.97685 | 1.87583 | 38740 ft | 472 kts | 97° |
| 2026-04-12 10:25 | 55.97685 | 1.99327 | 38755 ft | 472 kts | 97° |
| 2026-04-12 10:26 | 55.97674 | 2.11078 | 38744 ft | 473 kts | 97° |
| 2026-04-12 10:26 | 55.97652 | 2.22765 | 38763 ft | 474 kts | 97° |
| 2026-04-12 10:27 | 55.97618 | 2.34546 | 38766 ft | 475 kts | 97° |
| 2026-04-12 10:27 | 55.97573 | 2.46378 | 38769 ft | 476 kts | 97° |
| 2026-04-12 10:28 | 55.97517 | 2.58150 | 38769 ft | 477 kts | 97° |
| 2026-04-12 10:28 | 55.97449 | 2.70011 | 38779 ft | 478 kts | 97° |
| 2026-04-12 10:29 | 55.97370 | 2.81911 | 38783 ft | 479 kts | 97° |
| 2026-04-12 10:29 | 55.97279 | 2.93778 | 38793 ft | 480 kts | 97° |
| 2026-04-12 10:30 | 55.97177 | 3.05721 | 38792 ft | 481 kts | 97° |
| 2026-04-12 10:30 | 55.97062 | 3.17695 | 38799 ft | 483 kts | 97° |
| 2026-04-12 10:31 | 55.96936 | 3.29712 | 38800 ft | 484 kts | 97° |
| 2026-04-12 10:31 | 55.96798 | 3.41672 | 38808 ft | 484 kts | 97° |
| 2026-04-12 10:32 | 55.96648 | 3.53713 | 38800 ft | 485 kts | 97° |
| 2026-04-12 10:32 | 55.96486 | 3.65776 | 38816 ft | 485 kts | 97° |
| 2026-04-12 10:33 | 55.96313 | 3.77785 | 38819 ft | 485 kts | 97° |
| 2026-04-12 10:33 | 55.96129 | 3.89773 | 38834 ft | 485 kts | 97° |
| 2026-04-12 10:34 | 55.95932 | 4.01821 | 38838 ft | 485 kts | 97° |
| 2026-04-12 10:34 | 55.95723 | 4.13843 | 38849 ft | 484 kts | 98° |
| 2026-04-12 10:35 | 55.95503 | 4.25875 | 38848 ft | 483 kts | 98° |
| 2026-04-12 10:35 | 55.95273 | 4.37807 | 38856 ft | 483 kts | 98° |
| 2026-04-12 10:36 | 55.95029 | 4.49805 | 38859 ft | 482 kts | 98° |
| 2026-04-12 10:36 | 55.94777 | 4.61695 | 38872 ft | 482 kts | 98° |
| 2026-04-12 10:37 | 55.94512 | 4.73638 | 38872 ft | 481 kts | 98° |
| 2026-04-12 10:37 | 55.94235 | 4.85592 | 38882 ft | 481 kts | 98° |
| 2026-04-12 10:38 | 55.93951 | 4.97454 | 38885 ft | 481 kts | 98° |
| 2026-04-12 10:38 | 55.93882 | 5.09467 | 38897 ft | 484 kts | 94° |
| 2026-04-12 10:39 | 55.94048 | 5.21479 | 38901 ft | 485 kts | 94° |
| 2026-04-12 10:39 | 55.94162 | 5.33423 | 38906 ft | 485 kts | 94° |
| 2026-04-12 10:40 | 55.94231 | 5.45480 | 38903 ft | 485 kts | 94° |
| 2026-04-12 10:40 | 55.94293 | 5.57544 | 38914 ft | 486 kts | 94° |
| 2026-04-12 10:41 | 55.94346 | 5.69640 | 38918 ft | 487 kts | 94° |
| 2026-04-12 10:41 | 55.94388 | 5.81686 | 38929 ft | 488 kts | 94° |
| 2026-04-12 10:42 | 55.94418 | 5.93808 | 38924 ft | 489 kts | 94° |
| 2026-04-12 10:42 | 55.94436 | 6.05866 | 38933 ft | 489 kts | 94° |
| 2026-04-12 10:43 | 55.94441 | 6.24100 | 38942 ft | 490 kts | 94° |
| 2026-04-12 10:43 | 55.94430 | 6.36202 | 38945 ft | 490 kts | 94° |
| 2026-04-12 10:44 | 55.94407 | 6.48433 | 38950 ft | 490 kts | 94° |
| 2026-04-12 10:44 | 55.94299 | 6.60504 | 38951 ft | 487 kts | 99° |
| 2026-04-12 10:45 | 55.92800 | 6.72115 | 38970 ft | 476 kts | 115° |
| 2026-04-12 10:45 | 55.90921 | 6.81345 | 38963 ft | 476 kts | 115° |
| 2026-04-12 10:46 | 55.88278 | 6.94231 | 38966 ft | 476 kts | 115° |
| 2026-04-12 10:46 | 55.86413 | 7.03486 | 38976 ft | 477 kts | 114° |
| 2026-04-12 10:47 | 55.84181 | 7.14620 | 38975 ft | 477 kts | 114° |
| 2026-04-12 10:47 | 55.81939 | 7.25758 | 38980 ft | 478 kts | 114° |
| 2026-04-12 10:48 | 55.79680 | 7.36911 | 38985 ft | 479 kts | 114° |
| 2026-04-12 10:48 | 55.77405 | 7.48071 | 38997 ft | 480 kts | 114° |
| 2026-04-12 10:49 | 55.75135 | 7.59140 | 38999 ft | 481 kts | 114° |
| 2026-04-12 10:49 | 55.72832 | 7.70312 | 39000 ft | 482 kts | 114° |
| 2026-04-12 10:50 | 55.70511 | 7.81510 | 38997 ft | 483 kts | 114° |
| 2026-04-12 10:50 | 55.68195 | 7.92625 | 39006 ft | 483 kts | 114° |
| 2026-04-12 10:51 | 55.65853 | 8.03803 | 39011 ft | 484 kts | 114° |
| 2026-04-12 10:51 | 55.63494 | 8.15007 | 39028 ft | 484 kts | 114° |
| 2026-04-12 10:52 | 55.61122 | 8.26171 | 39036 ft | 484 kts | 114° |
| 2026-04-12 10:52 | 55.59211 | 8.37546 | 39055 ft | 487 kts | 105° |
| 2026-04-12 10:53 | 55.57743 | 8.49256 | 39045 ft | 487 kts | 104° |
| 2026-04-12 10:53 | 55.56265 | 8.60972 | 39040 ft | 487 kts | 105° |
| 2026-04-12 10:54 | 55.54742 | 8.72614 | 39036 ft | 486 kts | 105° |
| 2026-04-12 10:54 | 55.53193 | 8.84242 | 39045 ft | 485 kts | 105° |
| 2026-04-12 10:55 | 55.51911 | 8.95863 | 39045 ft | 485 kts | 99° |
| 2026-04-12 10:55 | 55.51004 | 9.07698 | 39038 ft | 485 kts | 98° |
| 2026-04-12 10:56 | 55.50118 | 9.19486 | 39045 ft | 484 kts | 98° |
| 2026-04-12 10:56 | 55.49180 | 9.31186 | 39048 ft | 483 kts | 99° |
| 2026-04-12 10:57 | 55.48197 | 9.42923 | 39043 ft | 482 kts | 99° |
| 2026-04-12 10:57 | 55.47205 | 9.54544 | 39045 ft | 481 kts | 99° |
| 2026-04-12 10:58 | 55.46200 | 9.66196 | 39041 ft | 480 kts | 99° |
| 2026-04-12 10:58 | 55.45186 | 9.77842 | 39048 ft | 479 kts | 99° |
| 2026-04-12 10:59 | 55.44171 | 9.89372 | 39044 ft | 479 kts | 98° |
| 2026-04-12 10:59 | 55.43137 | 10.00995 | 39051 ft | 478 kts | 98° |
| 2026-04-12 11:00 | 55.42102 | 10.12489 | 39043 ft | 478 kts | 98° |
| 2026-04-12 11:00 | 55.41049 | 10.24067 | 39047 ft | 478 kts | 98° |
| 2026-04-12 11:01 | 55.39993 | 10.35556 | 39046 ft | 478 kts | 98° |
| 2026-04-12 11:01 | 55.38919 | 10.47109 | 39050 ft | 478 kts | 98° |
| 2026-04-12 11:02 | 55.37834 | 10.58651 | 39051 ft | 478 kts | 98° |
| 2026-04-12 11:02 | 55.36738 | 10.70197 | 39053 ft | 478 kts | 98° |
| 2026-04-12 11:03 | 55.35638 | 10.81664 | 39055 ft | 478 kts | 98° |
| 2026-04-12 11:03 | 55.34520 | 10.93203 | 39065 ft | 479 kts | 98° |
| 2026-04-12 11:04 | 55.33391 | 11.04730 | 39065 ft | 479 kts | 98° |
| 2026-04-12 11:04 | 55.32250 | 11.16269 | 39068 ft | 479 kts | 98° |
| 2026-04-12 11:05 | 55.31104 | 11.27724 | 39080 ft | 479 kts | 98° |
| 2026-04-12 11:05 | 55.29939 | 11.39279 | 39080 ft | 480 kts | 98° |
| 2026-04-12 11:06 | 55.28761 | 11.50843 | 39081 ft | 481 kts | 98° |
| 2026-04-12 11:06 | 55.27576 | 11.62356 | 39079 ft | 482 kts | 98° |
| 2026-04-12 11:07 | 55.26370 | 11.73959 | 39074 ft | 482 kts | 98° |
| 2026-04-12 11:07 | 55.25155 | 11.85537 | 39074 ft | 482 kts | 98° |
| 2026-04-12 11:08 | 55.23938 | 11.97020 | 39081 ft | 481 kts | 99° |
| 2026-04-12 11:08 | 55.22702 | 12.08580 | 39080 ft | 481 kts | 99° |
| 2026-04-12 11:09 | 55.21466 | 12.20027 | 39082 ft | 480 kts | 99° |
| 2026-04-12 11:09 | 55.20214 | 12.31516 | 39083 ft | 479 kts | 99° |
| 2026-04-12 11:10 | 55.18955 | 12.42967 | 39083 ft | 478 kts | 100° |
| 2026-04-12 11:10 | 55.17694 | 12.54330 | 39084 ft | 478 kts | 100° |
| 2026-04-12 11:11 | 55.16416 | 12.65748 | 39091 ft | 478 kts | 100° |
| 2026-04-12 11:11 | 55.15124 | 12.77179 | 39095 ft | 479 kts | 101° |
| 2026-04-12 11:12 | 55.13819 | 12.88624 | 39103 ft | 480 kts | 101° |
| 2026-04-12 11:12 | 55.12500 | 13.00096 | 39103 ft | 482 kts | 101° |
| 2026-04-12 11:13 | 55.11174 | 13.11530 | 39110 ft | 483 kts | 101° |
| 2026-04-12 11:13 | 55.09823 | 13.23066 | 39111 ft | 485 kts | 101° |
| 2026-04-12 11:14 | 55.08455 | 13.34659 | 39110 ft | 487 kts | 101° |
| 2026-04-12 11:14 | 55.07077 | 13.46225 | 39113 ft | 489 kts | 101° |
| 2026-04-12 11:15 | 55.05679 | 13.57868 | 39123 ft | 491 kts | 101° |
| 2026-04-12 11:15 | 55.04264 | 13.69546 | 39114 ft | 492 kts | 101° |
| 2026-04-12 11:16 | 55.02843 | 13.81171 | 39121 ft | 493 kts | 101° |
| 2026-04-12 11:16 | 55.01403 | 13.92859 | 39125 ft | 493 kts | 101° |
| 2026-04-12 11:17 | 54.99951 | 14.04538 | 39131 ft | 492 kts | 101° |
| 2026-04-12 11:17 | 54.98493 | 14.16172 | 39132 ft | 491 kts | 101° |
| 2026-04-12 11:18 | 54.97034 | 14.27722 | 39142 ft | 490 kts | 101° |
| 2026-04-12 11:18 | 54.95562 | 14.39293 | 39148 ft | 488 kts | 101° |
| 2026-04-12 11:19 | 54.93586 | 14.50536 | 39145 ft | 486 kts | 120° |
| 2026-04-12 11:19 | 54.89686 | 14.60003 | 39163 ft | 483 kts | 130° |
| 2026-04-12 11:20 | 54.85482 | 14.69099 | 39149 ft | 483 kts | 128° |
| 2026-04-12 11:20 | 54.81479 | 14.78455 | 39148 ft | 482 kts | 126° |
| 2026-04-12 11:21 | 54.77631 | 14.87980 | 39154 ft | 482 kts | 125° |
| 2026-04-12 11:21 | 54.73824 | 14.97542 | 39146 ft | 482 kts | 125° |
| 2026-04-12 11:22 | 54.70023 | 15.07045 | 39153 ft | 483 kts | 125° |
| 2026-04-12 11:22 | 54.66172 | 15.16602 | 39153 ft | 484 kts | 125° |
| 2026-04-12 11:23 | 54.62305 | 15.26148 | 39156 ft | 485 kts | 125° |
| 2026-04-12 11:23 | 54.58444 | 15.35637 | 39150 ft | 486 kts | 125° |
| 2026-04-12 11:24 | 54.54540 | 15.45199 | 39151 ft | 487 kts | 125° |
| 2026-04-12 11:24 | 54.50625 | 15.54750 | 39152 ft | 488 kts | 125° |
| 2026-04-12 11:25 | 54.46729 | 15.64220 | 39154 ft | 488 kts | 126° |
| 2026-04-12 11:25 | 54.42793 | 15.73751 | 39147 ft | 488 kts | 126° |
| 2026-04-12 11:26 | 54.38851 | 15.83258 | 39152 ft | 488 kts | 126° |
| 2026-04-12 11:26 | 54.34935 | 15.92669 | 39151 ft | 487 kts | 126° |
| 2026-04-12 11:27 | 54.30980 | 16.02137 | 39152 ft | 487 kts | 126° |
| 2026-04-12 11:27 | 54.27043 | 16.11526 | 39152 ft | 486 kts | 126° |
| 2026-04-12 11:28 | 54.23139 | 16.20822 | 39138 ft | 472 kts | 129° |
| 2026-04-12 11:28 | 54.19346 | 16.29807 | 39148 ft | 463 kts | 129° |
| 2026-04-12 11:29 | 54.15583 | 16.38666 | 39157 ft | 463 kts | 130° |
| 2026-04-12 11:29 | 54.11774 | 16.47605 | 39169 ft | 469 kts | 129° |
| 2026-04-12 11:30 | 54.07902 | 16.56664 | 39168 ft | 475 kts | 129° |
| 2026-04-12 11:30 | 54.04002 | 16.65767 | 39172 ft | 479 kts | 129° |
| 2026-04-12 11:31 | 54.00050 | 16.74958 | 39160 ft | 480 kts | 129° |
| 2026-04-12 11:31 | 53.96139 | 16.84028 | 39151 ft | 471 kts | 129° |
| 2026-04-12 11:32 | 53.92255 | 16.92994 | 39159 ft | 470 kts | 129° |
| 2026-04-12 11:32 | 53.88388 | 17.01885 | 39172 ft | 470 kts | 129° |
| 2026-04-12 11:33 | 53.84498 | 17.10798 | 39173 ft | 470 kts | 129° |
| 2026-04-12 11:33 | 53.81256 | 17.18201 | 39180 ft | 471 kts | 129° |
| 2026-04-12 11:34 | 53.77350 | 17.27094 | 39179 ft | 473 kts | 129° |
| 2026-04-12 11:34 | 53.73400 | 17.36055 | 39179 ft | 475 kts | 129° |
| 2026-04-12 11:35 | 53.69426 | 17.45035 | 38590 ft | 486 kts | 129° |
| 2026-04-12 11:35 | 53.67398 | 17.49607 | 37955 ft | 485 kts | 129° |
| 2026-04-12 11:35 | 53.65375 | 17.54162 | 37474 ft | 482 kts | 129° |
| 2026-04-12 11:36 | 53.63367 | 17.58675 | 36947 ft | 480 kts | 129° |
| 2026-04-12 11:36 | 53.61386 | 17.63120 | 36386 ft | 480 kts | 129° |
| 2026-04-12 11:36 | 53.59371 | 17.67631 | 35803 ft | 481 kts | 128° |
| 2026-04-12 11:36 | 53.57350 | 17.72147 | 35151 ft | 484 kts | 128° |
| 2026-04-12 11:37 | 53.55306 | 17.76704 | 34495 ft | 488 kts | 128° |
| 2026-04-12 11:37 | 53.53266 | 17.81245 | 33757 ft | 492 kts | 128° |
| 2026-04-12 11:37 | 53.51194 | 17.85851 | 33038 ft | 495 kts | 128° |
| 2026-04-12 11:37 | 53.49110 | 17.90474 | 32296 ft | 498 kts | 128° |
| 2026-04-12 11:38 | 53.47007 | 17.95131 | 31558 ft | 501 kts | 128° |
| 2026-04-12 11:38 | 53.44902 | 17.99785 | 31032 ft | 498 kts | 128° |
| 2026-04-12 11:38 | 53.42808 | 18.04406 | 30474 ft | 497 kts | 128° |
| 2026-04-12 11:38 | 53.40716 | 18.09013 | 29884 ft | 495 kts | 128° |
| 2026-04-12 11:39 | 53.38630 | 18.13597 | 29307 ft | 492 kts | 128° |
| 2026-04-12 11:39 | 53.36587 | 18.18081 | 28749 ft | 489 kts | 128° |
| 2026-04-12 11:39 | 53.34527 | 18.22592 | 28203 ft | 485 kts | 128° |
| 2026-04-12 11:39 | 53.32480 | 18.27067 | 27664 ft | 482 kts | 128° |
| 2026-04-12 11:40 | 53.30443 | 18.31511 | 27121 ft | 479 kts | 128° |
| 2026-04-12 11:40 | 53.28414 | 18.35933 | 26563 ft | 477 kts | 128° |
| 2026-04-12 11:40 | 53.26395 | 18.40321 | 26015 ft | 475 kts | 128° |
| 2026-04-12 11:40 | 53.24385 | 18.44685 | 25468 ft | 473 kts | 128° |
| 2026-04-12 11:41 | 53.22404 | 18.48978 | 24923 ft | 471 kts | 128° |
| 2026-04-12 11:41 | 53.20404 | 18.53305 | 24391 ft | 470 kts | 128° |
| 2026-04-12 11:41 | 53.18410 | 18.57610 | 23843 ft | 468 kts | 128° |
| 2026-04-12 11:41 | 53.16419 | 18.61904 | 23230 ft | 466 kts | 128° |
| 2026-04-12 11:42 | 53.14439 | 18.66164 | 22675 ft | 463 kts | 128° |
| 2026-04-12 11:42 | 53.12476 | 18.70382 | 22140 ft | 458 kts | 128° |
| 2026-04-12 11:42 | 53.10525 | 18.74568 | 21615 ft | 454 kts | 128° |
| 2026-04-12 11:43 | 53.06704 | 18.82744 | 20591 ft | 447 kts | 127° |
| 2026-04-12 11:43 | 53.04798 | 18.86813 | 20073 ft | 443 kts | 127° |
| 2026-04-12 11:43 | 53.02912 | 18.90832 | 19567 ft | 439 kts | 127° |
| 2026-04-12 11:43 | 53.01036 | 18.94824 | 19058 ft | 436 kts | 127° |
| 2026-04-12 11:44 | 52.99176 | 18.98775 | 18556 ft | 433 kts | 127° |
| 2026-04-12 11:44 | 52.97327 | 19.02697 | 18005 ft | 429 kts | 127° |
| 2026-04-12 11:44 | 52.95494 | 19.06579 | 17484 ft | 423 kts | 127° |
| 2026-04-12 11:44 | 52.93690 | 19.10395 | 16995 ft | 418 kts | 127° |
| 2026-04-12 11:45 | 52.91926 | 19.14120 | 16517 ft | 412 kts | 127° |
| 2026-04-12 11:45 | 52.90168 | 19.17826 | 16041 ft | 407 kts | 127° |
| 2026-04-12 11:45 | 52.88428 | 19.21489 | 15592 ft | 401 kts | 127° |
| 2026-04-12 11:45 | 52.86712 | 19.25097 | 15191 ft | 394 kts | 127° |
| 2026-04-12 11:46 | 52.85029 | 19.28629 | 14798 ft | 388 kts | 127° |
| 2026-04-12 11:46 | 52.83369 | 19.32110 | 14411 ft | 382 kts | 127° |
| 2026-04-12 11:46 | 52.81734 | 19.35531 | 14018 ft | 376 kts | 127° |
| 2026-04-12 11:46 | 52.80140 | 19.38866 | 13596 ft | 370 kts | 127° |
| 2026-04-12 11:47 | 52.78548 | 19.42189 | 13154 ft | 365 kts | 127° |
| 2026-04-12 11:47 | 52.76983 | 19.45453 | 12733 ft | 361 kts | 127° |
| 2026-04-12 11:47 | 52.75437 | 19.48677 | 12319 ft | 356 kts | 127° |
| 2026-04-12 11:47 | 52.73906 | 19.51862 | 11904 ft | 352 kts | 127° |
| 2026-04-12 11:48 | 52.72392 | 19.55007 | 11484 ft | 348 kts | 127° |
| 2026-04-12 11:48 | 52.70893 | 19.58119 | 11223 ft | 341 kts | 127° |
| 2026-04-12 11:48 | 52.69454 | 19.61097 | 11200 ft | 332 kts | 127° |
| 2026-04-12 11:48 | 52.68019 | 19.64065 | 11128 ft | 333 kts | 127° |
| 2026-04-12 11:49 | 52.66564 | 19.67075 | 10730 ft | 336 kts | 127° |
| 2026-04-12 11:49 | 52.65106 | 19.70088 | 10366 ft | 335 kts | 127° |
| 2026-04-12 11:49 | 52.63652 | 19.73085 | 9982 ft | 332 kts | 127° |
| 2026-04-12 11:49 | 52.62217 | 19.76043 | 9565 ft | 329 kts | 127° |
| 2026-04-12 11:50 | 52.60793 | 19.78970 | 9154 ft | 326 kts | 127° |
| 2026-04-12 11:50 | 52.59382 | 19.81871 | 8761 ft | 323 kts | 127° |
| 2026-04-12 11:50 | 52.58005 | 19.84704 | 8382 ft | 320 kts | 127° |
| 2026-04-12 11:50 | 52.56623 | 19.87543 | 7996 ft | 316 kts | 127° |
| 2026-04-12 11:51 | 52.55253 | 19.90351 | 7632 ft | 313 kts | 128° |
| 2026-04-12 11:51 | 52.53893 | 19.93135 | 7253 ft | 311 kts | 127° |
| 2026-04-12 11:51 | 52.52554 | 19.95870 | 7002 ft | 304 kts | 128° |
| 2026-04-12 11:51 | 52.51238 | 19.98557 | 6744 ft | 298 kts | 128° |
| 2026-04-12 11:52 | 52.49946 | 20.01186 | 6491 ft | 293 kts | 128° |
| 2026-04-12 11:52 | 52.48680 | 20.03772 | 6217 ft | 288 kts | 128° |
| 2026-04-12 11:52 | 52.47428 | 20.06326 | 5940 ft | 284 kts | 128° |
| 2026-04-12 11:52 | 52.46230 | 20.08758 | 5671 ft | 271 kts | 128° |
| 2026-04-12 11:53 | 52.45068 | 20.11121 | 5384 ft | 261 kts | 128° |
| 2026-04-12 11:53 | 52.43943 | 20.13407 | 5120 ft | 252 kts | 128° |
| 2026-04-12 11:53 | 52.42858 | 20.15607 | 4858 ft | 245 kts | 128° |
| 2026-04-12 11:53 | 52.41809 | 20.17729 | 4583 ft | 239 kts | 128° |
| 2026-04-12 11:54 | 52.40986 | 20.20019 | 4272 ft | 232 kts | 104° |
| 2026-04-12 11:54 | 52.41012 | 20.22624 | 4056 ft | 231 kts | 75° |
| 2026-04-12 11:54 | 52.41400 | 20.25172 | 3833 ft | 232 kts | 79° |
| 2026-04-12 11:54 | 52.41683 | 20.27790 | 3573 ft | 235 kts | 81° |
| 2026-04-12 11:55 | 52.41930 | 20.30454 | 3321 ft | 237 kts | 82° |
| 2026-04-12 11:55 | 52.42171 | 20.33107 | 3081 ft | 233 kts | 82° |
| 2026-04-12 11:55 | 52.42399 | 20.35682 | 3006 ft | 222 kts | 82° |
| 2026-04-12 11:55 | 52.42616 | 20.38098 | 3007 ft | 208 kts | 82° |
| 2026-04-12 11:56 | 52.42831 | 20.40441 | 3004 ft | 207 kts | 81° |
| 2026-04-12 11:56 | 52.43046 | 20.42757 | 2871 ft | 209 kts | 81° |
| 2026-04-12 11:56 | 52.43264 | 20.45093 | 2602 ft | 207 kts | 80° |
| 2026-04-12 11:56 | 52.43472 | 20.47403 | 2314 ft | 201 kts | 82° |
| 2026-04-12 11:57 | 52.43675 | 20.49587 | 2101 ft | 186 kts | 82° |
| 2026-04-12 11:57 | 52.43868 | 20.51608 | 1819 ft | 175 kts | 83° |
| 2026-04-12 11:57 | 52.44035 | 20.53522 | 1589 ft | 163 kts | 81° |
| 2026-04-12 11:57 | 52.44198 | 20.55278 | 1375 ft | 148 kts | 82° |
| 2026-04-12 11:58 | 52.44347 | 20.56916 | 1145 ft | 145 kts | 82° |
| 2026-04-12 11:58 | 52.44484 | 20.58550 | 905 ft | 142 kts | 81° |
| 2026-04-12 11:58 | 52.44650 | 20.60171 | 717 ft | 144 kts | 80° |
| 2026-04-12 11:58 | 52.44799 | 20.61776 | 557 ft | 142 kts | 82° |
| 2026-04-12 11:59 | 52.44950 | 20.63348 | 387 ft | 140 kts | 81° |
| 2026-04-12 11:59 | 52.45082 | 20.64768 | 333 ft | 98 kts | 81° |
| 2026-04-12 11:59 | 52.45156 | 20.65558 | 336 ft | 56 kts | 81° |
| 2026-04-12 11:59 | 52.45169 | 20.65983 | 333 ft | 13 kts | 155° |
| 2026-04-12 12:00 | 52.45072 | 20.66042 | 337 ft | 19 kts | 160° |
| 2026-04-12 12:00 | 52.44933 | 20.66124 | 334 ft | 17 kts | 161° |
| 2026-04-12 12:00 | 52.44863 | 20.66038 | 335 ft | 14 kts | 257° |
| 2026-04-12 12:00 | 52.44848 | 20.65886 | 335 ft | 13 kts | 261° |
| 2026-04-12 12:01 | 52.44835 | 20.65740 | 334 ft | 13 kts | 262° |
| 2026-04-12 12:01 | 52.44823 | 20.65597 | 337 ft | 12 kts | 261° |
| 2026-04-12 12:01 | 52.44808 | 20.65436 | 334 ft | 17 kts | 261° |
| 2026-04-12 12:01 | 52.44781 | 20.65290 | 336 ft | 8 kts | 215° |
| 2026-04-12 12:02 | 52.44745 | 20.65259 | 333 ft | 1 kts | 206° |
| 2026-04-12 12:02 | 52.44745 | 20.65258 | 333 ft | 0 kts | 206° |